Alum Bank, Pennsylvania
Current Conditions -  °F | °C
As of 1:01 PM on Tuesday 21 Oct 2014 (Local Time) from KJST Reporting Station
Broken Clouds Broken Clouds  
Wind Chill: 11°   Ceiling: 3000
Heat Index: 11°   Visibility: 10mi
Dew Point:   Wind: 9mph
Humidity: 80%   Direction: 270°W
Pressure: 29.85"   Gusts: NA
Location:  40.18°N, 78.61°W
Report Text: KJST 211701Z AUTO 27008KT 10SM SCT014 SCT024 BKN030 11/07 A2985 RMK AO2 T01060072
Loading
Personal Weather Stations






























Interactive Weather Map
Tropical Storm Tracking
New forecast layout! Learn more

10-Day Weather Forecast

Advertisements
Track Severe Weather on mobile